Emporia, Kansas
Current Conditions -  °F | °C
As of 6:53 AM on Thursday 23 Oct 2014 (Local Time) from KEMP Reporting Station
Haze Haze  
Wind Chill: 61°   Ceiling: 2800
Heat Index: 61°   Visibility: 5mi
Dew Point: 61°   Wind: 6mph
Humidity: 100%   Direction: 180°S
Pressure: 30.09"   Gusts: NA
Location:  38.41°N, 96.18°W
Report Text: KEMP 231153Z AUTO 18005KT 5SM BR SCT008 OVC028 16/16 A3009 RMK AO2 RAE1055 SLP184 P0000 60008 70009 T01610161 10167 20161 53002
Loading
Personal Weather Stations






























Interactive Weather Map New forecast layout! Learn more

10-Day Weather Forecast

Advertisements
Track Severe Weather on mobile